sensor_id;sensor_type;location;lat;lon;timestamp;P1;durP1;ratioP1;P2;durP2;ratioP2
51179;SDS011;37243;49.814;8.652;2023-03-01T00:01:43;2.40;;;2.20;;
51179;SDS011;37243;49.814;8.652;2023-03-01T00:04:11;1.90;;;1.77;;
51179;SDS011;37243;49.814;8.652;2023-03-01T00:06:39;2.58;;;1.88;;
51179;SDS011;37243;49.814;8.652;2023-03-01T00:09:11;1.85;;;1.75;;
51179;SDS011;37243;49.814;8.652;2023-03-01T00:11:42;2.13;;;1.95;;
51179;SDS011;37243;49.814;8.652;2023-03-01T00:14:10;2.75;;;1.83;;
51179;SDS011;37243;49.814;8.652;2023-03-01T00:16:42;2.00;;;1.85;;
51179;SDS011;37243;49.814;8.652;2023-03-01T00:19:12;2.13;;;2.00;;
51179;SDS011;37243;49.814;8.652;2023-03-01T00:21:41;2.10;;;2.00;;
51179;SDS011;37243;49.814;8.652;2023-03-01T00:24:10;2.15;;;2.05;;
51179;SDS011;37243;49.814;8.652;2023-03-01T00:26:39;2.30;;;2.10;;
51179;SDS011;37243;49.814;8.652;2023-03-01T00:29:10;3.05;;;2.20;;
51179;SDS011;37243;49.814;8.652;2023-03-01T00:31:38;1.92;;;1.83;;
51179;SDS011;37243;49.814;8.652;2023-03-01T00:34:06;2.20;;;1.98;;
51179;SDS011;37243;49.814;8.652;2023-03-01T00:36:36;2.80;;;2.10;;
51179;SDS011;37243;49.814;8.652;2023-03-01T00:39:07;3.55;;;2.08;;
51179;SDS011;37243;49.814;8.652;2023-03-01T00:41:38;2.58;;;1.95;;
51179;SDS011;37243;49.814;8.652;2023-03-01T00:44:09;3.22;;;2.00;;
51179;SDS011;37243;49.814;8.652;2023-03-01T00:46:38;2.28;;;1.75;;
51179;SDS011;37243;49.814;8.652;2023-03-01T00:49:06;2.33;;;2.20;;
51179;SDS011;37243;49.814;8.652;2023-03-01T00:51:34;2.28;;;1.90;;
51179;SDS011;37243;49.814;8.652;2023-03-01T00:54:04;2.00;;;1.83;;
51179;SDS011;37243;49.814;8.652;2023-03-01T00:56:32;2.20;;;2.00;;
51179;SDS011;37243;49.814;8.652;2023-03-01T00:59:01;2.10;;;2.00;;
51179;SDS011;37243;49.814;8.652;2023-03-01T01:01:31;2.10;;;2.00;;
51179;SDS011;37243;49.814;8.652;2023-03-01T01:04:00;4.00;;;1.85;;
51179;SDS011;37243;49.814;8.652;2023-03-01T01:06:32;2.47;;;2.22;;
51179;SDS011;37243;49.814;8.652;2023-03-01T01:09:02;3.53;;;2.40;;
51179;SDS011;37243;49.814;8.652;2023-03-01T01:11:32;2.33;;;2.10;;
51179;SDS011;37243;49.814;8.652;2023-03-01T01:14:01;2.00;;;1.90;;
51179;SDS011;37243;49.814;8.652;2023-03-01T01:16:33;2.13;;;1.92;;
51179;SDS011;37243;49.814;8.652;2023-03-01T01:19:01;2.03;;;1.92;;
51179;SDS011;37243;49.814;8.652;2023-03-01T01:21:30;2.25;;;2.15;;
51179;SDS011;37243;49.814;8.652;2023-03-01T01:23:59;2.03;;;1.92;;
51179;SDS011;37243;49.814;8.652;2023-03-01T01:26:27;2.28;;;2.17;;
51179;SDS011;37243;49.814;8.652;2023-03-01T01:28:57;2.35;;;2.25;;
51179;SDS011;37243;49.814;8.652;2023-03-01T01:31:27;2.10;;;2.00;;
51179;SDS011;37243;49.814;8.652;2023-03-01T01:33:58;2.65;;;1.90;;
51179;SDS011;37243;49.814;8.652;2023-03-01T01:36:29;2.10;;;2.00;;
51179;SDS011;37243;49.814;8.652;2023-03-01T01:38:57;1.95;;;1.85;;
51179;SDS011;37243;49.814;8.652;2023-03-01T01:41:27;2.25;;;2.13;;
51179;SDS011;37243;49.814;8.652;2023-03-01T01:44:10;2.00;;;1.90;;
51179;SDS011;37243;49.814;8.652;2023-03-01T01:46:41;2.25;;;2.15;;
51179;SDS011;37243;49.814;8.652;2023-03-01T01:49:18;2.20;;;1.75;;
51179;SDS011;37243;49.814;8.652;2023-03-01T01:51:54;2.38;;;2.20;;
51179;SDS011;37243;49.814;8.652;2023-03-01T01:54:29;2.35;;;2.13;;
51179;SDS011;37243;49.814;8.652;2023-03-01T01:57:02;2.58;;;2.42;;
51179;SDS011;37243;49.814;8.652;2023-03-01T01:59:35;2.40;;;2.20;;
51179;SDS011;37243;49.814;8.652;2023-03-01T02:02:05;2.22;;;2.13;;
51179;SDS011;37243;49.814;8.652;2023-03-01T02:04:36;2.65;;;2.45;;
51179;SDS011;37243;49.814;8.652;2023-03-01T02:07:06;2.47;;;2.20;;
51179;SDS011;37243;49.814;8.652;2023-03-01T02:09:42;2.53;;;2.30;;
51179;SDS011;37243;49.814;8.652;2023-03-01T02:12:13;2.25;;;2.10;;
51179;SDS011;37243;49.814;8.652;2023-03-01T02:14:42;2.42;;;2.08;;
51179;SDS011;37243;49.814;8.652;2023-03-01T02:17:11;3.85;;;1.88;;
51179;SDS011;37243;49.814;8.652;2023-03-01T02:19:47;2.17;;;2.08;;
51179;SDS011;37243;49.814;8.652;2023-03-01T02:22:27;2.55;;;2.05;;
51179;SDS011;37243;49.814;8.652;2023-03-01T02:25:00;2.25;;;2.05;;
51179;SDS011;37243;49.814;8.652;2023-03-01T02:27:44;2.83;;;2.00;;
51179;SDS011;37243;49.814;8.652;2023-03-01T02:30:22;2.10;;;2.00;;
51179;SDS011;37243;49.814;8.652;2023-03-01T02:32:52;2.38;;;2.17;;
51179;SDS011;37243;49.814;8.652;2023-03-01T02:35:27;2.70;;;2.03;;
51179;SDS011;37243;49.814;8.652;2023-03-01T02:37:58;2.55;;;2.35;;
51179;SDS011;37243;49.814;8.652;2023-03-01T02:40:28;2.20;;;2.00;;
51179;SDS011;37243;49.814;8.652;2023-03-01T02:42:58;2.33;;;2.13;;
51179;SDS011;37243;49.814;8.652;2023-03-01T02:45:29;2.05;;;1.95;;
51179;SDS011;37243;49.814;8.652;2023-03-01T02:47:58;2.05;;;1.95;;
51179;SDS011;37243;49.814;8.652;2023-03-01T02:50:36;2.30;;;2.20;;
51179;SDS011;37243;49.814;8.652;2023-03-01T02:53:21;2.10;;;2.00;;
51179;SDS011;37243;49.814;8.652;2023-03-01T02:55:55;1.80;;;1.70;;
51179;SDS011;37243;49.814;8.652;2023-03-01T02:58:24;2.08;;;1.98;;
51179;SDS011;37243;49.814;8.652;2023-03-01T03:00:55;3.53;;;2.30;;
51179;SDS011;37243;49.814;8.652;2023-03-01T03:03:25;2.20;;;2.10;;
51179;SDS011;37243;49.814;8.652;2023-03-01T03:05:54;2.13;;;2.03;;
51179;SDS011;37243;49.814;8.652;2023-03-01T03:08:22;2.10;;;2.00;;
51179;SDS011;37243;49.814;8.652;2023-03-01T03:10:50;2.53;;;2.17;;
51179;SDS011;37243;49.814;8.652;2023-03-01T03:13:19;2.45;;;2.28;;
51179;SDS011;37243;49.814;8.652;2023-03-01T03:15:47;2.90;;;2.38;;
51179;SDS011;37243;49.814;8.652;2023-03-01T03:18:18;2.20;;;2.10;;
51179;SDS011;37243;49.814;8.652;2023-03-01T03:20:47;2.30;;;2.20;;
51179;SDS011;37243;49.814;8.652;2023-03-01T03:23:18;2.40;;;2.30;;
51179;SDS011;37243;49.814;8.652;2023-03-01T03:25:47;2.65;;;2.45;;
51179;SDS011;37243;49.814;8.652;2023-03-01T03:28:17;2.20;;;2.10;;
51179;SDS011;37243;49.814;8.652;2023-03-01T03:30:45;2.20;;;1.90;;
51179;SDS011;37243;49.814;8.652;2023-03-01T03:33:14;2.25;;;2.15;;
51179;SDS011;37243;49.814;8.652;2023-03-01T03:35:46;2.10;;;1.92;;
51179;SDS011;37243;49.814;8.652;2023-03-01T03:38:17;2.50;;;2.40;;
51179;SDS011;37243;49.814;8.652;2023-03-01T03:40:47;2.47;;;2.22;;
51179;SDS011;37243;49.814;8.652;2023-03-01T03:43:17;2.10;;;2.00;;
51179;SDS011;37243;49.814;8.652;2023-03-01T03:45:47;2.70;;;2.50;;
51179;SDS011;37243;49.814;8.652;2023-03-01T03:48:19;2.42;;;2.33;;
51179;SDS011;37243;49.814;8.652;2023-03-01T03:50:48;2.20;;;2.10;;
51179;SDS011;37243;49.814;8.652;2023-03-01T03:53:19;2.45;;;2.35;;
51179;SDS011;37243;49.814;8.652;2023-03-01T03:55:48;2.78;;;2.50;;
51179;SDS011;37243;49.814;8.652;2023-03-01T03:58:17;2.10;;;2.00;;
51179;SDS011;37243;49.814;8.652;2023-03-01T04:00:48;2.60;;;2.40;;
51179;SDS011;37243;49.814;8.652;2023-03-01T04:03:21;2.50;;;2.30;;
51179;SDS011;37243;49.814;8.652;2023-03-01T04:05:51;2.50;;;2.30;;
51179;SDS011;37243;49.814;8.652;2023-03-01T04:08:20;2.40;;;2.30;;
51179;SDS011;37243;49.814;8.652;2023-03-01T04:10:50;2.22;;;2.13;;
51179;SDS011;37243;49.814;8.652;2023-03-01T04:13:21;2.53;;;2.33;;
51179;SDS011;37243;49.814;8.652;2023-03-01T04:15:51;2.22;;;2.13;;
51179;SDS011;37243;49.814;8.652;2023-03-01T04:18:23;2.22;;;2.13;;
51179;SDS011;37243;49.814;8.652;2023-03-01T04:20:52;2.40;;;2.20;;
51179;SDS011;37243;49.814;8.652;2023-03-01T04:23:21;3.45;;;2.20;;
51179;SDS011;37243;49.814;8.652;2023-03-01T04:25:50;2.17;;;2.08;;
51179;SDS011;37243;49.814;8.652;2023-03-01T04:28:22;2.20;;;2.10;;
51179;SDS011;37243;49.814;8.652;2023-03-01T04:30:52;2.60;;;2.42;;
51179;SDS011;37243;49.814;8.652;2023-03-01T04:33:23;2.53;;;2.42;;
51179;SDS011;37243;49.814;8.652;2023-03-01T04:35:52;2.38;;;2.28;;
51179;SDS011;37243;49.814;8.652;2023-03-01T04:38:22;2.85;;;2.10;;
51179;SDS011;37243;49.814;8.652;2023-03-01T04:40:50;2.55;;;2.35;;
51179;SDS011;37243;49.814;8.652;2023-03-01T04:43:19;2.40;;;2.30;;
51179;SDS011;37243;49.814;8.652;2023-03-01T04:45:47;2.60;;;2.40;;
51179;SDS011;37243;49.814;8.652;2023-03-01T04:48:15;2.95;;;2.20;;
51179;SDS011;37243;49.814;8.652;2023-03-01T04:50:46;2.13;;;2.00;;
51179;SDS011;37243;49.814;8.652;2023-03-01T04:53:15;2.47;;;2.35;;
51179;SDS011;37243;49.814;8.652;2023-03-01T04:55:43;2.38;;;2.15;;
51179;SDS011;37243;49.814;8.652;2023-03-01T04:58:12;2.30;;;2.20;;
51179;SDS011;37243;49.814;8.652;2023-03-01T05:00:40;2.45;;;2.25;;
51179;SDS011;37243;49.814;8.652;2023-03-01T05:03:08;2.47;;;2.35;;
51179;SDS011;37243;49.814;8.652;2023-03-01T05:05:37;2.63;;;2.50;;
51179;SDS011;37243;49.814;8.652;2023-03-01T05:08:09;2.65;;;2.55;;
51179;SDS011;37243;49.814;8.652;2023-03-01T05:10:43;2.92;;;2.30;;
51179;SDS011;37243;49.814;8.652;2023-03-01T05:13:13;2.17;;;2.08;;
51179;SDS011;37243;49.814;8.652;2023-03-01T05:15:46;2.22;;;2.13;;
51179;SDS011;37243;49.814;8.652;2023-03-01T05:18:15;2.70;;;2.50;;
51179;SDS011;37243;49.814;8.652;2023-03-01T05:20:44;2.53;;;2.33;;
51179;SDS011;37243;49.814;8.652;2023-03-01T05:23:15;3.38;;;2.88;;
51179;SDS011;37243;49.814;8.652;2023-03-01T05:25:43;2.13;;;2.03;;
51179;SDS011;37243;49.814;8.652;2023-03-01T05:28:12;2.40;;;2.22;;
51179;SDS011;37243;49.814;8.652;2023-03-01T05:30:41;2.42;;;2.33;;
51179;SDS011;37243;49.814;8.652;2023-03-01T05:33:10;2.50;;;2.30;;
51179;SDS011;37243;49.814;8.652;2023-03-01T05:35:39;2.65;;;2.50;;
51179;SDS011;37243;49.814;8.652;2023-03-01T05:38:08;2.60;;;2.40;;
51179;SDS011;37243;49.814;8.652;2023-03-01T05:40:40;2.55;;;2.35;;
51179;SDS011;37243;49.814;8.652;2023-03-01T05:43:09;3.00;;;2.40;;
51179;SDS011;37243;49.814;8.652;2023-03-01T05:45:39;3.78;;;2.42;;
51179;SDS011;37243;49.814;8.652;2023-03-01T05:48:10;2.70;;;2.50;;
51179;SDS011;37243;49.814;8.652;2023-03-01T05:50:40;3.28;;;2.65;;
51179;SDS011;37243;49.814;8.652;2023-03-01T05:53:11;2.80;;;2.60;;
51179;SDS011;37243;49.814;8.652;2023-03-01T05:55:45;2.83;;;2.28;;
51179;SDS011;37243;49.814;8.652;2023-03-01T05:58:15;2.63;;;2.40;;
51179;SDS011;37243;49.814;8.652;2023-03-01T06:00:45;2.72;;;2.50;;
51179;SDS011;37243;49.814;8.652;2023-03-01T06:03:15;3.13;;;2.40;;
51179;SDS011;37243;49.814;8.652;2023-03-01T06:05:45;3.55;;;2.80;;
51179;SDS011;37243;49.814;8.652;2023-03-01T06:08:13;2.78;;;2.58;;
51179;SDS011;37243;49.814;8.652;2023-03-01T06:10:44;2.40;;;2.30;;
51179;SDS011;37243;49.814;8.652;2023-03-01T06:13:14;3.65;;;2.58;;
51179;SDS011;37243;49.814;8.652;2023-03-01T06:15:42;2.90;;;2.70;;
51179;SDS011;37243;49.814;8.652;2023-03-01T06:18:10;8.90;;;3.08;;
51179;SDS011;37243;49.814;8.652;2023-03-01T06:20:39;4.60;;;3.30;;
51179;SDS011;37243;49.814;8.652;2023-03-01T06:23:07;6.35;;;3.28;;
51179;SDS011;37243;49.814;8.652;2023-03-01T06:25:35;4.88;;;3.20;;
51179;SDS011;37243;49.814;8.652;2023-03-01T06:28:07;8.55;;;3.65;;
51179;SDS011;37243;49.814;8.652;2023-03-01T06:30:35;6.22;;;3.38;;
51179;SDS011;37243;49.814;8.652;2023-03-01T06:33:03;7.95;;;3.70;;
51179;SDS011;37243;49.814;8.652;2023-03-01T06:35:32;6.72;;;3.88;;
51179;SDS011;37243;49.814;8.652;2023-03-01T06:38:01;7.15;;;3.67;;
51179;SDS011;37243;49.814;8.652;2023-03-01T06:40:32;6.03;;;3.72;;
51179;SDS011;37243;49.814;8.652;2023-03-01T06:43:01;8.23;;;3.75;;
51179;SDS011;37243;49.814;8.652;2023-03-01T06:45:31;8.10;;;3.67;;
51179;SDS011;37243;49.814;8.652;2023-03-01T06:48:03;6.60;;;3.55;;
51179;SDS011;37243;49.814;8.652;2023-03-01T06:50:33;4.57;;;3.80;;
51179;SDS011;37243;49.814;8.652;2023-03-01T06:53:02;5.57;;;3.90;;
51179;SDS011;37243;49.814;8.652;2023-03-01T06:55:31;6.47;;;3.83;;
51179;SDS011;37243;49.814;8.652;2023-03-01T06:58:00;5.57;;;3.47;;
51179;SDS011;37243;49.814;8.652;2023-03-01T07:00:32;7.55;;;4.47;;
51179;SDS011;37243;49.814;8.652;2023-03-01T07:03:00;4.65;;;3.90;;
51179;SDS011;37243;49.814;8.652;2023-03-01T07:05:29;6.75;;;4.45;;
51179;SDS011;37243;49.814;8.652;2023-03-01T07:07:58;9.30;;;3.97;;
51179;SDS011;37243;49.814;8.652;2023-03-01T07:10:26;6.68;;;3.72;;
51179;SDS011;37243;49.814;8.652;2023-03-01T07:12:55;6.65;;;4.00;;
51179;SDS011;37243;49.814;8.652;2023-03-01T07:15:24;8.65;;;3.88;;
51179;SDS011;37243;49.814;8.652;2023-03-01T07:17:55;7.78;;;4.25;;
51179;SDS011;37243;49.814;8.652;2023-03-01T07:20:23;9.63;;;4.05;;
51179;SDS011;37243;49.814;8.652;2023-03-01T07:22:52;4.18;;;3.70;;
51179;SDS011;37243;49.814;8.652;2023-03-01T07:25:21;4.32;;;3.95;;
51179;SDS011;37243;49.814;8.652;2023-03-01T07:27:49;4.93;;;3.45;;
51179;SDS011;37243;49.814;8.652;2023-03-01T07:30:19;6.30;;;3.78;;
51179;SDS011;37243;49.814;8.652;2023-03-01T07:32:50;5.07;;;3.50;;
51179;SDS011;37243;49.814;8.652;2023-03-01T07:35:22;5.50;;;3.85;;
51179;SDS011;37243;49.814;8.652;2023-03-01T07:37:51;4.20;;;3.72;;
51179;SDS011;37243;49.814;8.652;2023-03-01T07:40:20;5.18;;;3.63;;
51179;SDS011;37243;49.814;8.652;2023-03-01T07:42:48;4.07;;;3.67;;
51179;SDS011;37243;49.814;8.652;2023-03-01T07:45:16;6.35;;;3.72;;
51179;SDS011;37243;49.814;8.652;2023-03-01T07:47:44;7.38;;;3.85;;
51179;SDS011;37243;49.814;8.652;2023-03-01T07:50:13;6.90;;;3.97;;
51179;SDS011;37243;49.814;8.652;2023-03-01T07:52:44;6.03;;;3.45;;
51179;SDS011;37243;49.814;8.652;2023-03-01T07:55:13;5.30;;;3.60;;
51179;SDS011;37243;49.814;8.652;2023-03-01T07:57:42;7.32;;;3.65;;
51179;SDS011;37243;49.814;8.652;2023-03-01T08:00:11;4.45;;;3.67;;
51179;SDS011;37243;49.814;8.652;2023-03-01T08:02:40;6.18;;;4.13;;
51179;SDS011;37243;49.814;8.652;2023-03-01T08:05:08;4.32;;;3.65;;
51179;SDS011;37243;49.814;8.652;2023-03-01T08:07:37;4.68;;;3.53;;
51179;SDS011;37243;49.814;8.652;2023-03-01T08:10:09;6.20;;;3.55;;
51179;SDS011;37243;49.814;8.652;2023-03-01T08:12:38;6.80;;;3.65;;
51179;SDS011;37243;49.814;8.652;2023-03-01T08:15:07;3.75;;;3.35;;
51179;SDS011;37243;49.814;8.652;2023-03-01T08:17:36;5.35;;;3.47;;
51179;SDS011;37243;49.814;8.652;2023-03-01T08:20:05;3.22;;;3.00;;
51179;SDS011;37243;49.814;8.652;2023-03-01T08:22:37;5.22;;;3.63;;
51179;SDS011;37243;49.814;8.652;2023-03-01T08:25:05;3.25;;;2.80;;
51179;SDS011;37243;49.814;8.652;2023-03-01T08:27:37;4.97;;;3.47;;
51179;SDS011;37243;49.814;8.652;2023-03-01T08:30:06;5.57;;;3.20;;
51179;SDS011;37243;49.814;8.652;2023-03-01T08:32:38;4.25;;;3.40;;
51179;SDS011;37243;49.814;8.652;2023-03-01T08:35:07;6.13;;;3.22;;
51179;SDS011;37243;49.814;8.652;2023-03-01T08:37:36;3.83;;;3.42;;
51179;SDS011;37243;49.814;8.652;2023-03-01T08:40:05;4.78;;;3.17;;
51179;SDS011;37243;49.814;8.652;2023-03-01T08:42:37;4.05;;;3.25;;
51179;SDS011;37243;49.814;8.652;2023-03-01T08:45:06;5.80;;;3.60;;
51179;SDS011;37243;49.814;8.652;2023-03-01T08:47:36;5.55;;;3.30;;
51179;SDS011;37243;49.814;8.652;2023-03-01T08:50:04;4.22;;;2.80;;
51179;SDS011;37243;49.814;8.652;2023-03-01T08:52:33;3.38;;;3.08;;
51179;SDS011;37243;49.814;8.652;2023-03-01T08:55:02;6.38;;;3.80;;
51179;SDS011;37243;49.814;8.652;2023-03-01T08:57:30;3.10;;;2.80;;
51179;SDS011;37243;49.814;8.652;2023-03-01T09:00:02;3.30;;;3.00;;
51179;SDS011;37243;49.814;8.652;2023-03-01T09:02:33;3.03;;;2.72;;
51179;SDS011;37243;49.814;8.652;2023-03-01T09:05:02;4.43;;;3.00;;
51179;SDS011;37243;49.814;8.652;2023-03-01T09:07:30;3.65;;;2.65;;
51179;SDS011;37243;49.814;8.652;2023-03-01T09:09:58;5.25;;;3.17;;
51179;SDS011;37243;49.814;8.652;2023-03-01T09:12:27;3.33;;;3.03;;
51179;SDS011;37243;49.814;8.652;2023-03-01T09:14:55;3.28;;;3.08;;
51179;SDS011;37243;49.814;8.652;2023-03-01T09:17:26;3.90;;;3.60;;
51179;SDS011;37243;49.814;8.652;2023-03-01T09:19:54;3.45;;;3.25;;
51179;SDS011;37243;49.814;8.652;2023-03-01T09:22:22;4.03;;;3.17;;
51179;SDS011;37243;49.814;8.652;2023-03-01T09:24:51;3.40;;;3.10;;
51179;SDS011;37243;49.814;8.652;2023-03-01T09:27:19;3.40;;;3.10;;
51179;SDS011;37243;49.814;8.652;2023-03-01T09:29:47;3.33;;;3.03;;
51179;SDS011;37243;49.814;8.652;2023-03-01T09:32:16;3.33;;;3.03;;
51179;SDS011;37243;49.814;8.652;2023-03-01T09:34:47;3.55;;;3.05;;
51179;SDS011;37243;49.814;8.652;2023-03-01T09:37:31;4.35;;;3.05;;
51179;SDS011;37243;49.814;8.652;2023-03-01T09:40:00;4.00;;;3.17;;
51179;SDS011;37243;49.814;8.652;2023-03-01T09:42:29;4.22;;;2.80;;
51179;SDS011;37243;49.814;8.652;2023-03-01T09:45:00;2.88;;;2.67;;
51179;SDS011;37243;49.814;8.652;2023-03-01T09:47:32;3.17;;;2.88;;
51179;SDS011;37243;49.814;8.652;2023-03-01T09:50:06;3.80;;;3.30;;
51179;SDS011;37243;49.814;8.652;2023-03-01T09:52:42;4.05;;;3.25;;
51179;SDS011;37243;49.814;8.652;2023-03-01T09:55:15;3.13;;;2.72;;
51179;SDS011;37243;49.814;8.652;2023-03-01T09:57:48;3.47;;;2.90;;
51179;SDS011;37243;49.814;8.652;2023-03-01T10:00:26;3.50;;;3.20;;
51179;SDS011;37243;49.814;8.652;2023-03-01T10:03:02;3.60;;;3.03;;
51179;SDS011;37243;49.814;8.652;2023-03-01T10:05:43;3.30;;;3.00;;
51179;SDS011;37243;49.814;8.652;2023-03-01T10:08:27;2.90;;;2.70;;
51179;SDS011;37243;49.814;8.652;2023-03-01T10:11:01;3.22;;;2.92;;
51179;SDS011;37243;49.814;8.652;2023-03-01T10:13:34;3.25;;;2.95;;
51179;SDS011;37243;49.814;8.652;2023-03-01T10:16:14;4.15;;;2.80;;
51179;SDS011;37243;49.814;8.652;2023-03-01T10:18:46;4.38;;;3.10;;
51179;SDS011;37243;49.814;8.652;2023-03-01T10:21:23;2.78;;;2.50;;
51179;SDS011;37243;49.814;8.652;2023-03-01T10:23:51;3.30;;;2.95;;
51179;SDS011;37243;49.814;8.652;2023-03-01T10:26:27;5.57;;;2.72;;
51179;SDS011;37243;49.814;8.652;2023-03-01T10:29:07;3.53;;;3.22;;
51179;SDS011;37243;49.814;8.652;2023-03-01T10:31:38;3.33;;;2.83;;
51179;SDS011;37243;49.814;8.652;2023-03-01T10:34:11;2.85;;;2.65;;
51179;SDS011;37243;49.814;8.652;2023-03-01T10:36:44;3.40;;;3.10;;
51179;SDS011;37243;49.814;8.652;2023-03-01T10:39:16;4.18;;;2.92;;
51179;SDS011;37243;49.814;8.652;2023-03-01T10:41:57;3.30;;;3.00;;
51179;SDS011;37243;49.814;8.652;2023-03-01T10:44:36;4.20;;;2.72;;
51179;SDS011;37243;49.814;8.652;2023-03-01T10:47:13;3.72;;;2.70;;
51179;SDS011;37243;49.814;8.652;2023-03-01T10:53:00;3.03;;;2.83;;
51179;SDS011;37243;49.814;8.652;2023-03-01T10:55:31;5.28;;;2.80;;
51179;SDS011;37243;49.814;8.652;2023-03-01T10:58:06;3.42;;;2.95;;
51179;SDS011;37243;49.814;8.652;2023-03-01T11:00:45;2.58;;;2.47;;
51179;SDS011;37243;49.814;8.652;2023-03-01T11:03:16;3.20;;;3.00;;
51179;SDS011;37243;49.814;8.652;2023-03-01T11:05:53;3.20;;;2.90;;
51179;SDS011;37243;49.814;8.652;2023-03-01T11:08:36;3.25;;;2.83;;
51179;SDS011;37243;49.814;8.652;2023-03-01T11:11:16;4.65;;;3.08;;
51179;SDS011;37243;49.814;8.652;2023-03-01T11:13:49;4.40;;;2.97;;
51179;SDS011;37243;49.814;8.652;2023-03-01T11:16:24;2.80;;;2.60;;
51179;SDS011;37243;49.814;8.652;2023-03-01T11:18:59;3.22;;;2.85;;
51179;SDS011;37243;49.814;8.652;2023-03-01T11:21:32;3.60;;;2.88;;
51179;SDS011;37243;49.814;8.652;2023-03-01T11:24:05;3.28;;;2.88;;
51179;SDS011;37243;49.814;8.652;2023-03-01T11:26:39;3.70;;;3.17;;
51179;SDS011;37243;49.814;8.652;2023-03-01T11:29:12;3.65;;;3.03;;
51179;SDS011;37243;49.814;8.652;2023-03-01T11:31:49;6.28;;;3.20;;
51179;SDS011;37243;49.814;8.652;2023-03-01T11:34:19;4.50;;;3.03;;
51179;SDS011;37243;49.814;8.652;2023-03-01T11:36:52;3.00;;;2.80;;
51179;SDS011;37243;49.814;8.652;2023-03-01T11:39:27;2.90;;;2.70;;
51179;SDS011;37243;49.814;8.652;2023-03-01T11:42:03;3.05;;;2.78;;
51179;SDS011;37243;49.814;8.652;2023-03-01T11:44:38;5.32;;;3.28;;
51179;SDS011;37243;49.814;8.652;2023-03-01T11:47:13;3.42;;;3.17;;
51179;SDS011;37243;49.814;8.652;2023-03-01T11:50:01;3.15;;;2.92;;
51179;SDS011;37243;49.814;8.652;2023-03-01T11:52:45;3.30;;;3.10;;
51179;SDS011;37243;49.814;8.652;2023-03-01T11:55:29;3.58;;;2.83;;
51179;SDS011;37243;49.814;8.652;2023-03-01T12:03:54;3.70;;;3.08;;
51179;SDS011;37243;49.814;8.652;2023-03-01T12:06:42;2.67;;;2.47;;
51179;SDS011;37243;49.814;8.652;2023-03-01T12:09:21;4.20;;;3.10;;
51179;SDS011;37243;49.814;8.652;2023-03-01T12:12:11;3.08;;;2.70;;
51179;SDS011;37243;49.814;8.652;2023-03-01T12:15:09;3.20;;;2.90;;
51179;SDS011;37243;49.814;8.652;2023-03-01T12:17:54;3.85;;;2.95;;
51179;SDS011;37243;49.814;8.652;2023-03-01T12:20:35;4.05;;;2.85;;
51179;SDS011;37243;49.814;8.652;2023-03-01T12:23:20;3.53;;;2.80;;
51179;SDS011;37243;49.814;8.652;2023-03-01T12:25:58;3.70;;;2.97;;
51179;SDS011;37243;49.814;8.652;2023-03-01T12:28:44;4.05;;;3.10;;
51179;SDS011;37243;49.814;8.652;2023-03-01T12:31:33;3.38;;;3.08;;
51179;SDS011;37243;49.814;8.652;2023-03-01T12:34:13;4.60;;;2.80;;
51179;SDS011;37243;49.814;8.652;2023-03-01T12:36:55;3.20;;;2.90;;
51179;SDS011;37243;49.814;8.652;2023-03-01T12:39:43;3.88;;;2.70;;
51179;SDS011;37243;49.814;8.652;2023-03-01T12:42:21;3.03;;;2.83;;
51179;SDS011;37243;49.814;8.652;2023-03-01T12:45:03;3.00;;;2.80;;
51179;SDS011;37243;49.814;8.652;2023-03-01T12:48:05;3.35;;;2.70;;
51179;SDS011;37243;49.814;8.652;2023-03-01T12:50:48;3.58;;;2.42;;
51179;SDS011;37243;49.814;8.652;2023-03-01T12:53:21;2.78;;;2.58;;
51179;SDS011;37243;49.814;8.652;2023-03-01T12:55:52;3.85;;;2.83;;
51179;SDS011;37243;49.814;8.652;2023-03-01T12:58:25;3.45;;;2.58;;
51179;SDS011;37243;49.814;8.652;2023-03-01T13:01:04;3.03;;;2.60;;
51179;SDS011;37243;49.814;8.652;2023-03-01T13:03:48;3.72;;;3.10;;
51179;SDS011;37243;49.814;8.652;2023-03-01T13:06:29;2.80;;;2.60;;
51179;SDS011;37243;49.814;8.652;2023-03-01T13:09:11;3.83;;;2.70;;
51179;SDS011;37243;49.814;8.652;2023-03-01T13:11:46;4.20;;;3.22;;
51179;SDS011;37243;49.814;8.652;2023-03-01T13:17:39;2.88;;;2.63;;
51179;SDS011;37243;49.814;8.652;2023-03-01T13:20:15;2.92;;;2.72;;
51179;SDS011;37243;49.814;8.652;2023-03-01T13:22:46;2.95;;;2.75;;
51179;SDS011;37243;49.814;8.652;2023-03-01T13:25:15;3.92;;;2.92;;
51179;SDS011;37243;49.814;8.652;2023-03-01T13:27:46;3.10;;;2.90;;
51179;SDS011;37243;49.814;8.652;2023-03-01T13:30:38;5.80;;;2.95;;
51179;SDS011;37243;49.814;8.652;2023-03-01T13:36:11;2.92;;;2.72;;
51179;SDS011;37243;49.814;8.652;2023-03-01T13:39:28;3.17;;;2.88;;
51179;SDS011;37243;49.814;8.652;2023-03-01T13:42:00;3.63;;;3.28;;
51179;SDS011;37243;49.814;8.652;2023-03-01T13:44:30;3.63;;;3.03;;
51179;SDS011;37243;49.814;8.652;2023-03-01T13:47:03;2.72;;;2.40;;
51179;SDS011;37243;49.814;8.652;2023-03-01T13:49:45;2.80;;;2.60;;
51179;SDS011;37243;49.814;8.652;2023-03-01T13:52:23;2.95;;;2.72;;
51179;SDS011;37243;49.814;8.652;2023-03-01T13:55:06;2.90;;;2.70;;
51179;SDS011;37243;49.814;8.652;2023-03-01T13:57:45;3.45;;;2.78;;
51179;SDS011;37243;49.814;8.652;2023-03-01T14:02:59;2.80;;;2.55;;
51179;SDS011;37243;49.814;8.652;2023-03-01T14:05:31;3.03;;;2.60;;
51179;SDS011;37243;49.814;8.652;2023-03-01T14:08:01;3.05;;;2.75;;
51179;SDS011;37243;49.814;8.652;2023-03-01T14:10:31;3.08;;;2.75;;
51179;SDS011;37243;49.814;8.652;2023-03-01T14:13:08;3.40;;;3.10;;
51179;SDS011;37243;49.814;8.652;2023-03-01T14:15:55;3.00;;;2.80;;
51179;SDS011;37243;49.814;8.652;2023-03-01T14:18:41;2.50;;;2.30;;
51179;SDS011;37243;49.814;8.652;2023-03-01T14:21:21;2.90;;;2.60;;
51179;SDS011;37243;49.814;8.652;2023-03-01T14:23:50;2.65;;;2.45;;
51179;SDS011;37243;49.814;8.652;2023-03-01T14:26:20;4.00;;;2.85;;
51179;SDS011;37243;49.814;8.652;2023-03-01T14:28:49;3.40;;;3.08;;
51179;SDS011;37243;49.814;8.652;2023-03-01T14:31:35;3.65;;;2.70;;
51179;SDS011;37243;49.814;8.652;2023-03-01T14:34:05;2.80;;;2.60;;
51179;SDS011;37243;49.814;8.652;2023-03-01T14:36:36;3.25;;;2.80;;
51179;SDS011;37243;49.814;8.652;2023-03-01T14:39:15;4.40;;;2.90;;
51179;SDS011;37243;49.814;8.652;2023-03-01T14:41:44;3.22;;;2.55;;
51179;SDS011;37243;49.814;8.652;2023-03-01T14:44:14;2.90;;;2.53;;
51179;SDS011;37243;49.814;8.652;2023-03-01T14:46:51;3.50;;;3.05;;
51179;SDS011;37243;49.814;8.652;2023-03-01T14:49:21;4.55;;;2.88;;
51179;SDS011;37243;49.814;8.652;2023-03-01T14:51:54;4.10;;;2.47;;
51179;SDS011;37243;49.814;8.652;2023-03-01T14:54:29;2.72;;;2.50;;
51179;SDS011;37243;49.814;8.652;2023-03-01T14:57:05;7.38;;;2.60;;
51179;SDS011;37243;49.814;8.652;2023-03-01T14:59:33;2.65;;;2.42;;
51179;SDS011;37243;49.814;8.652;2023-03-01T15:02:02;3.05;;;2.50;;
51179;SDS011;37243;49.814;8.652;2023-03-01T15:04:30;2.90;;;2.60;;
51179;SDS011;37243;49.814;8.652;2023-03-01T15:07:01;2.70;;;2.47;;
51179;SDS011;37243;49.814;8.652;2023-03-01T15:09:30;2.88;;;2.33;;
51179;SDS011;37243;49.814;8.652;2023-03-01T15:15:19;2.42;;;2.22;;
51179;SDS011;37243;49.814;8.652;2023-03-01T15:18:01;5.70;;;2.83;;
51179;SDS011;37243;49.814;8.652;2023-03-01T15:20:32;2.58;;;2.45;;
51179;SDS011;37243;49.814;8.652;2023-03-01T15:23:05;3.05;;;2.75;;
51179;SDS011;37243;49.814;8.652;2023-03-01T15:25:44;4.03;;;2.53;;
51179;SDS011;37243;49.814;8.652;2023-03-01T15:28:19;2.90;;;2.70;;
51179;SDS011;37243;49.814;8.652;2023-03-01T15:30:51;2.72;;;2.53;;
51179;SDS011;37243;49.814;8.652;2023-03-01T15:33:33;2.42;;;2.30;;
51179;SDS011;37243;49.814;8.652;2023-03-01T15:36:03;3.88;;;2.83;;
51179;SDS011;37243;49.814;8.652;2023-03-01T15:39:02;2.83;;;2.53;;
51179;SDS011;37243;49.814;8.652;2023-03-01T15:41:32;3.20;;;2.50;;